sensor_id;sensor_type;location;lat;lon;timestamp;temperature;humidity
18160;DHT22;9205;52.032;4.314;2022-07-06T00:00:54;15.60;99.90
18160;DHT22;9205;52.032;4.314;2022-07-06T00:03:21;15.60;99.90
18160;DHT22;9205;52.032;4.314;2022-07-06T00:05:52;15.60;99.90
18160;DHT22;9205;52.032;4.314;2022-07-06T00:08:31;15.60;99.90
18160;DHT22;9205;52.032;4.314;2022-07-06T00:14:33;15.60;99.90
18160;DHT22;9205;52.032;4.314;2022-07-06T00:17:01;15.40;99.90
18160;DHT22;9205;52.032;4.314;2022-07-06T00:19:28;15.40;99.90
18160;DHT22;9205;52.032;4.314;2022-07-06T00:21:55;15.40;99.90
18160;DHT22;9205;52.032;4.314;2022-07-06T00:24:23;15.40;99.90
18160;DHT22;9205;52.032;4.314;2022-07-06T00:26:50;15.40;99.90
18160;DHT22;9205;52.032;4.314;2022-07-06T00:29:17;15.40;99.90
18160;DHT22;9205;52.032;4.314;2022-07-06T00:31:46;15.40;99.90
18160;DHT22;9205;52.032;4.314;2022-07-06T00:34:13;15.40;99.90
18160;DHT22;9205;52.032;4.314;2022-07-06T00:36:40;15.30;99.90
18160;DHT22;9205;52.032;4.314;2022-07-06T00:39:08;15.30;99.90
18160;DHT22;9205;52.032;4.314;2022-07-06T00:41:35;15.30;99.90
18160;DHT22;9205;52.032;4.314;2022-07-06T00:44:07;15.20;99.90
18160;DHT22;9205;52.032;4.314;2022-07-06T00:46:36;15.30;99.90
18160;DHT22;9205;52.032;4.314;2022-07-06T00:49:04;15.20;99.90
18160;DHT22;9205;52.032;4.314;2022-07-06T00:51:52;15.20;99.90
18160;DHT22;9205;52.032;4.314;2022-07-06T00:54:19;15.10;99.90
18160;DHT22;9205;52.032;4.314;2022-07-06T00:56:46;15.10;99.90
18160;DHT22;9205;52.032;4.314;2022-07-06T00:59:14;15.10;99.90
18160;DHT22;9205;52.032;4.314;2022-07-06T01:01:41;15.10;99.90
18160;DHT22;9205;52.032;4.314;2022-07-06T01:04:12;15.10;99.90
18160;DHT22;9205;52.032;4.314;2022-07-06T01:06:43;15.00;99.90
18160;DHT22;9205;52.032;4.314;2022-07-06T01:09:12;15.00;99.90
18160;DHT22;9205;52.032;4.314;2022-07-06T01:11:40;15.00;99.90
18160;DHT22;9205;52.032;4.314;2022-07-06T01:14:08;14.90;99.90
18160;DHT22;9205;52.032;4.314;2022-07-06T01:16:35;14.90;99.90
18160;DHT22;9205;52.032;4.314;2022-07-06T01:19:04;14.90;99.90
18160;DHT22;9205;52.032;4.314;2022-07-06T01:21:32;14.80;99.90
18160;DHT22;9205;52.032;4.314;2022-07-06T01:23:59;14.80;99.90
18160;DHT22;9205;52.032;4.314;2022-07-06T01:26:27;14.90;99.90
18160;DHT22;9205;52.032;4.314;2022-07-06T01:28:55;14.90;99.90
18160;DHT22;9205;52.032;4.314;2022-07-06T01:31:23;14.90;99.90
18160;DHT22;9205;52.032;4.314;2022-07-06T01:33:53;14.90;99.90
18160;DHT22;9205;52.032;4.314;2022-07-06T01:36:22;14.80;99.90
18160;DHT22;9205;52.032;4.314;2022-07-06T01:38:53;14.70;99.90
18160;DHT22;9205;52.032;4.314;2022-07-06T01:41:27;14.70;99.90
18160;DHT22;9205;52.032;4.314;2022-07-06T01:43:54;14.70;99.90
18160;DHT22;9205;52.032;4.314;2022-07-06T01:46:22;14.60;99.90
18160;DHT22;9205;52.032;4.314;2022-07-06T01:48:49;14.60;99.90
18160;DHT22;9205;52.032;4.314;2022-07-06T01:51:17;14.60;99.90
18160;DHT22;9205;52.032;4.314;2022-07-06T01:53:46;14.60;99.90
18160;DHT22;9205;52.032;4.314;2022-07-06T01:56:18;14.60;99.90
18160;DHT22;9205;52.032;4.314;2022-07-06T01:58:49;14.50;99.90
18160;DHT22;9205;52.032;4.314;2022-07-06T02:01:19;14.60;99.90
18160;DHT22;9205;52.032;4.314;2022-07-06T02:03:47;14.60;99.90
18160;DHT22;9205;52.032;4.314;2022-07-06T02:06:14;14.50;99.90
18160;DHT22;9205;52.032;4.314;2022-07-06T02:08:45;14.60;99.90
18160;DHT22;9205;52.032;4.314;2022-07-06T02:11:18;14.50;99.90
18160;DHT22;9205;52.032;4.314;2022-07-06T02:13:45;14.50;99.90
18160;DHT22;9205;52.032;4.314;2022-07-06T02:16:13;14.40;99.90
18160;DHT22;9205;52.032;4.314;2022-07-06T02:18:40;14.50;99.90
18160;DHT22;9205;52.032;4.314;2022-07-06T02:21:07;14.50;99.90
18160;DHT22;9205;52.032;4.314;2022-07-06T02:23:35;14.40;99.90
18160;DHT22;9205;52.032;4.314;2022-07-06T02:26:02;14.40;99.90
18160;DHT22;9205;52.032;4.314;2022-07-06T02:28:32;14.40;99.90
18160;DHT22;9205;52.032;4.314;2022-07-06T02:30:59;14.40;99.90
18160;DHT22;9205;52.032;4.314;2022-07-06T02:33:28;14.30;99.90
18160;DHT22;9205;52.032;4.314;2022-07-06T02:35:58;14.30;99.90
18160;DHT22;9205;52.032;4.314;2022-07-06T02:38:42;14.30;99.90
18160;DHT22;9205;52.032;4.314;2022-07-06T02:41:10;14.30;99.90
18160;DHT22;9205;52.032;4.314;2022-07-06T02:43:42;14.30;99.90
18160;DHT22;9205;52.032;4.314;2022-07-06T02:46:09;14.30;99.90
18160;DHT22;9205;52.032;4.314;2022-07-06T02:48:37;14.30;99.90
18160;DHT22;9205;52.032;4.314;2022-07-06T02:51:05;14.20;99.90
18160;DHT22;9205;52.032;4.314;2022-07-06T02:53:33;14.20;99.90
18160;DHT22;9205;52.032;4.314;2022-07-06T02:56:00;14.20;99.90
18160;DHT22;9205;52.032;4.314;2022-07-06T02:58:29;14.20;99.90
18160;DHT22;9205;52.032;4.314;2022-07-06T03:00:58;14.20;99.90
18160;DHT22;9205;52.032;4.314;2022-07-06T03:03:25;14.20;99.90
18160;DHT22;9205;52.032;4.314;2022-07-06T03:05:53;14.20;99.90
18160;DHT22;9205;52.032;4.314;2022-07-06T03:08:20;14.10;99.90
18160;DHT22;9205;52.032;4.314;2022-07-06T03:10:48;14.20;99.90
18160;DHT22;9205;52.032;4.314;2022-07-06T03:13:16;14.30;99.90
18160;DHT22;9205;52.032;4.314;2022-07-06T03:15:45;14.30;99.90
18160;DHT22;9205;52.032;4.314;2022-07-06T03:18:13;14.30;99.90
18160;DHT22;9205;52.032;4.314;2022-07-06T03:20:41;14.30;99.90
18160;DHT22;9205;52.032;4.314;2022-07-06T03:23:10;14.30;99.90
18160;DHT22;9205;52.032;4.314;2022-07-06T03:25:38;14.30;99.90
18160;DHT22;9205;52.032;4.314;2022-07-06T03:28:05;14.20;99.90
18160;DHT22;9205;52.032;4.314;2022-07-06T03:30:33;14.30;99.90
18160;DHT22;9205;52.032;4.314;2022-07-06T03:33:00;14.30;99.90
18160;DHT22;9205;52.032;4.314;2022-07-06T03:35:30;14.20;99.90
18160;DHT22;9205;52.032;4.314;2022-07-06T03:37:57;14.20;99.90
18160;DHT22;9205;52.032;4.314;2022-07-06T03:40:28;14.20;99.90
18160;DHT22;9205;52.032;4.314;2022-07-06T03:42:55;14.30;99.90
18160;DHT22;9205;52.032;4.314;2022-07-06T03:45:24;14.30;99.90
18160;DHT22;9205;52.032;4.314;2022-07-06T03:47:52;14.40;99.90
18160;DHT22;9205;52.032;4.314;2022-07-06T03:50:19;14.40;99.90
18160;DHT22;9205;52.032;4.314;2022-07-06T03:52:48;14.50;99.90
18160;DHT22;9205;52.032;4.314;2022-07-06T03:55:16;14.50;99.90
18160;DHT22;9205;52.032;4.314;2022-07-06T03:57:49;14.50;99.90
18160;DHT22;9205;52.032;4.314;2022-07-06T04:00:21;14.50;99.90
18160;DHT22;9205;52.032;4.314;2022-07-06T04:02:56;14.60;99.90
18160;DHT22;9205;52.032;4.314;2022-07-06T04:05:28;14.60;99.90
18160;DHT22;9205;52.032;4.314;2022-07-06T04:07:58;14.60;99.90
18160;DHT22;9205;52.032;4.314;2022-07-06T04:10:32;14.60;99.90
18160;DHT22;9205;52.032;4.314;2022-07-06T04:13:00;14.60;99.90
18160;DHT22;9205;52.032;4.314;2022-07-06T04:15:28;14.60;99.90
18160;DHT22;9205;52.032;4.314;2022-07-06T04:17:55;14.70;99.90
18160;DHT22;9205;52.032;4.314;2022-07-06T04:20:37;14.60;99.90
18160;DHT22;9205;52.032;4.314;2022-07-06T04:23:08;14.70;99.90
18160;DHT22;9205;52.032;4.314;2022-07-06T04:25:44;14.70;99.90
18160;DHT22;9205;52.032;4.314;2022-07-06T04:28:12;14.70;99.90
18160;DHT22;9205;52.032;4.314;2022-07-06T04:30:49;14.70;99.90
18160;DHT22;9205;52.032;4.314;2022-07-06T04:33:23;14.70;99.90
18160;DHT22;9205;52.032;4.314;2022-07-06T04:35:50;14.70;99.90
18160;DHT22;9205;52.032;4.314;2022-07-06T04:39:06;14.70;99.90
18160;DHT22;9205;52.032;4.314;2022-07-06T04:41:15;14.80;99.90
18160;DHT22;9205;52.032;4.314;2022-07-06T04:43:43;14.80;99.90
18160;DHT22;9205;52.032;4.314;2022-07-06T04:46:14;14.80;99.90
18160;DHT22;9205;52.032;4.314;2022-07-06T04:48:43;14.90;99.90
18160;DHT22;9205;52.032;4.314;2022-07-06T04:51:16;14.80;99.90
18160;DHT22;9205;52.032;4.314;2022-07-06T04:53:45;14.90;99.90
18160;DHT22;9205;52.032;4.314;2022-07-06T04:56:15;14.90;99.90
18160;DHT22;9205;52.032;4.314;2022-07-06T04:58:42;14.90;99.90
18160;DHT22;9205;52.032;4.314;2022-07-06T05:01:13;14.90;99.90
18160;DHT22;9205;52.032;4.314;2022-07-06T05:03:40;14.90;99.90
18160;DHT22;9205;52.032;4.314;2022-07-06T05:06:19;14.90;99.90
18160;DHT22;9205;52.032;4.314;2022-07-06T05:08:48;15.00;99.90
18160;DHT22;9205;52.032;4.314;2022-07-06T05:11:15;15.00;99.90
18160;DHT22;9205;52.032;4.314;2022-07-06T05:13:43;15.10;99.90
18160;DHT22;9205;52.032;4.314;2022-07-06T05:16:12;15.10;99.90
18160;DHT22;9205;52.032;4.314;2022-07-06T05:18:39;15.10;99.90
18160;DHT22;9205;52.032;4.314;2022-07-06T05:21:06;15.20;99.90
18160;DHT22;9205;52.032;4.314;2022-07-06T05:23:34;15.20;99.90
18160;DHT22;9205;52.032;4.314;2022-07-06T05:26:03;15.30;99.90
18160;DHT22;9205;52.032;4.314;2022-07-06T05:28:32;15.30;99.90
18160;DHT22;9205;52.032;4.314;2022-07-06T05:30:59;15.30;99.90
18160;DHT22;9205;52.032;4.314;2022-07-06T05:33:27;15.30;99.90
18160;DHT22;9205;52.032;4.314;2022-07-06T05:35:55;15.40;99.90
18160;DHT22;9205;52.032;4.314;2022-07-06T05:38:27;15.40;99.90
18160;DHT22;9205;52.032;4.314;2022-07-06T05:40:55;15.50;99.90
18160;DHT22;9205;52.032;4.314;2022-07-06T05:43:24;15.50;99.90
18160;DHT22;9205;52.032;4.314;2022-07-06T05:45:53;15.50;99.90
18160;DHT22;9205;52.032;4.314;2022-07-06T05:48:22;15.60;99.90
18160;DHT22;9205;52.032;4.314;2022-07-06T05:51:07;15.60;99.90
18160;DHT22;9205;52.032;4.314;2022-07-06T05:53:34;15.70;99.90
18160;DHT22;9205;52.032;4.314;2022-07-06T05:56:01;15.70;99.90
18160;DHT22;9205;52.032;4.314;2022-07-06T05:58:32;15.70;99.90
18160;DHT22;9205;52.032;4.314;2022-07-06T06:01:00;15.70;99.90
18160;DHT22;9205;52.032;4.314;2022-07-06T06:03:27;15.80;99.90
18160;DHT22;9205;52.032;4.314;2022-07-06T06:05:55;15.90;99.90
18160;DHT22;9205;52.032;4.314;2022-07-06T06:08:23;15.90;99.90
18160;DHT22;9205;52.032;4.314;2022-07-06T06:10:51;15.90;99.90
18160;DHT22;9205;52.032;4.314;2022-07-06T06:13:21;16.00;99.90
18160;DHT22;9205;52.032;4.314;2022-07-06T06:15:50;16.00;99.90
18160;DHT22;9205;52.032;4.314;2022-07-06T06:18:18;16.10;99.90
18160;DHT22;9205;52.032;4.314;2022-07-06T06:20:45;16.10;99.90
18160;DHT22;9205;52.032;4.314;2022-07-06T06:23:13;16.20;99.90
18160;DHT22;9205;52.032;4.314;2022-07-06T06:25:40;16.20;99.90
18160;DHT22;9205;52.032;4.314;2022-07-06T06:28:09;16.20;99.90
18160;DHT22;9205;52.032;4.314;2022-07-06T06:30:38;16.30;99.90
18160;DHT22;9205;52.032;4.314;2022-07-06T06:33:12;16.30;99.90
18160;DHT22;9205;52.032;4.314;2022-07-06T06:35:43;16.30;99.90
18160;DHT22;9205;52.032;4.314;2022-07-06T06:38:11;16.40;99.90
18160;DHT22;9205;52.032;4.314;2022-07-06T06:40:39;16.40;99.90
18160;DHT22;9205;52.032;4.314;2022-07-06T06:43:06;16.40;99.90
18160;DHT22;9205;52.032;4.314;2022-07-06T06:45:40;16.40;99.90
18160;DHT22;9205;52.032;4.314;2022-07-06T06:48:07;16.40;99.90
18160;DHT22;9205;52.032;4.314;2022-07-06T06:50:36;16.50;99.90
18160;DHT22;9205;52.032;4.314;2022-07-06T06:53:03;16.50;99.90
18160;DHT22;9205;52.032;4.314;2022-07-06T06:55:30;16.60;99.90
18160;DHT22;9205;52.032;4.314;2022-07-06T06:57:58;16.60;99.90
18160;DHT22;9205;52.032;4.314;2022-07-06T07:00:25;16.60;99.90
18160;DHT22;9205;52.032;4.314;2022-07-06T07:02:52;16.60;99.90
18160;DHT22;9205;52.032;4.314;2022-07-06T07:05:20;16.70;99.90
18160;DHT22;9205;52.032;4.314;2022-07-06T07:07:51;16.80;99.90
18160;DHT22;9205;52.032;4.314;2022-07-06T07:10:20;16.80;99.90
18160;DHT22;9205;52.032;4.314;2022-07-06T07:12:48;16.90;99.90
18160;DHT22;9205;52.032;4.314;2022-07-06T07:15:15;17.00;99.90
18160;DHT22;9205;52.032;4.314;2022-07-06T07:17:43;17.00;99.90
18160;DHT22;9205;52.032;4.314;2022-07-06T07:20:11;17.10;99.90
18160;DHT22;9205;52.032;4.314;2022-07-06T07:22:39;17.10;99.90
18160;DHT22;9205;52.032;4.314;2022-07-06T07:25:08;17.10;99.90
18160;DHT22;9205;52.032;4.314;2022-07-06T07:27:35;17.10;99.90
18160;DHT22;9205;52.032;4.314;2022-07-06T07:30:03;17.10;99.90
18160;DHT22;9205;52.032;4.314;2022-07-06T07:32:32;17.10;99.90
18160;DHT22;9205;52.032;4.314;2022-07-06T07:34:59;17.20;99.90
18160;DHT22;9205;52.032;4.314;2022-07-06T07:37:27;17.20;99.90
18160;DHT22;9205;52.032;4.314;2022-07-06T07:39:54;17.30;99.90
18160;DHT22;9205;52.032;4.314;2022-07-06T07:42:23;17.40;99.90
18160;DHT22;9205;52.032;4.314;2022-07-06T07:44:50;17.30;99.90
18160;DHT22;9205;52.032;4.314;2022-07-06T07:47:17;17.40;99.90
18160;DHT22;9205;52.032;4.314;2022-07-06T07:49:44;17.50;99.90
18160;DHT22;9205;52.032;4.314;2022-07-06T07:52:12;17.60;99.90
18160;DHT22;9205;52.032;4.314;2022-07-06T07:54:39;17.60;99.90
18160;DHT22;9205;52.032;4.314;2022-07-06T07:57:07;17.70;99.90
18160;DHT22;9205;52.032;4.314;2022-07-06T07:59:36;17.70;99.90
18160;DHT22;9205;52.032;4.314;2022-07-06T08:02:03;17.90;99.90
18160;DHT22;9205;52.032;4.314;2022-07-06T08:04:31;17.90;99.90
18160;DHT22;9205;52.032;4.314;2022-07-06T08:07:00;18.00;99.90
18160;DHT22;9205;52.032;4.314;2022-07-06T08:09:28;18.10;99.90
18160;DHT22;9205;52.032;4.314;2022-07-06T08:11:56;18.20;99.90
18160;DHT22;9205;52.032;4.314;2022-07-06T08:14:24;18.20;99.90
18160;DHT22;9205;52.032;4.314;2022-07-06T08:16:53;18.20;99.90
18160;DHT22;9205;52.032;4.314;2022-07-06T08:19:20;18.20;99.90
18160;DHT22;9205;52.032;4.314;2022-07-06T08:21:51;18.10;99.90
18160;DHT22;9205;52.032;4.314;2022-07-06T08:24:19;18.10;99.90
18160;DHT22;9205;52.032;4.314;2022-07-06T08:26:46;18.20;99.90
18160;DHT22;9205;52.032;4.314;2022-07-06T08:29:14;18.30;99.90
18160;DHT22;9205;52.032;4.314;2022-07-06T08:31:41;18.30;99.90
18160;DHT22;9205;52.032;4.314;2022-07-06T08:34:10;18.30;99.90
18160;DHT22;9205;52.032;4.314;2022-07-06T08:36:38;18.30;99.90
18160;DHT22;9205;52.032;4.314;2022-07-06T08:39:06;18.30;99.90
18160;DHT22;9205;52.032;4.314;2022-07-06T08:41:34;18.20;99.90
18160;DHT22;9205;52.032;4.314;2022-07-06T08:44:03;18.20;99.90
18160;DHT22;9205;52.032;4.314;2022-07-06T08:46:31;18.20;99.90
18160;DHT22;9205;52.032;4.314;2022-07-06T08:48:59;18.30;99.90
18160;DHT22;9205;52.032;4.314;2022-07-06T08:51:29;18.40;99.90
18160;DHT22;9205;52.032;4.314;2022-07-06T08:53:58;18.30;99.90
18160;DHT22;9205;52.032;4.314;2022-07-06T08:56:28;18.40;99.90
18160;DHT22;9205;52.032;4.314;2022-07-06T08:58:56;18.40;99.90
18160;DHT22;9205;52.032;4.314;2022-07-06T09:01:24;18.40;99.90
18160;DHT22;9205;52.032;4.314;2022-07-06T09:03:52;18.40;99.90
18160;DHT22;9205;52.032;4.314;2022-07-06T09:06:24;18.40;99.90
18160;DHT22;9205;52.032;4.314;2022-07-06T09:08:55;18.50;99.90
18160;DHT22;9205;52.032;4.314;2022-07-06T09:11:25;18.60;99.90
18160;DHT22;9205;52.032;4.314;2022-07-06T09:13:53;18.60;99.90
18160;DHT22;9205;52.032;4.314;2022-07-06T09:16:26;18.70;99.90
18160;DHT22;9205;52.032;4.314;2022-07-06T09:18:55;18.70;99.90
18160;DHT22;9205;52.032;4.314;2022-07-06T09:21:24;18.70;99.90
18160;DHT22;9205;52.032;4.314;2022-07-06T09:23:57;18.70;99.90
18160;DHT22;9205;52.032;4.314;2022-07-06T09:26:26;18.80;99.90
18160;DHT22;9205;52.032;4.314;2022-07-06T09:28:56;18.70;99.90
18160;DHT22;9205;52.032;4.314;2022-07-06T09:31:25;18.80;99.90
18160;DHT22;9205;52.032;4.314;2022-07-06T09:33:57;18.90;99.90
18160;DHT22;9205;52.032;4.314;2022-07-06T09:36:47;18.90;99.90
18160;DHT22;9205;52.032;4.314;2022-07-06T09:39:18;18.90;99.90
18160;DHT22;9205;52.032;4.314;2022-07-06T09:41:47;18.70;99.90
18160;DHT22;9205;52.032;4.314;2022-07-06T09:44:21;18.90;99.90
18160;DHT22;9205;52.032;4.314;2022-07-06T09:46:51;18.80;99.90
18160;DHT22;9205;52.032;4.314;2022-07-06T09:49:20;18.90;99.90
18160;DHT22;9205;52.032;4.314;2022-07-06T09:51:51;19.10;99.90
18160;DHT22;9205;52.032;4.314;2022-07-06T09:54:21;19.10;99.90
18160;DHT22;9205;52.032;4.314;2022-07-06T09:56:50;19.00;99.90
18160;DHT22;9205;52.032;4.314;2022-07-06T09:59:19;19.10;99.90
18160;DHT22;9205;52.032;4.314;2022-07-06T10:01:52;19.20;99.90
18160;DHT22;9205;52.032;4.314;2022-07-06T10:04:22;19.20;99.90
18160;DHT22;9205;52.032;4.314;2022-07-06T10:06:50;19.20;99.90
18160;DHT22;9205;52.032;4.314;2022-07-06T10:09:23;19.20;99.90
18160;DHT22;9205;52.032;4.314;2022-07-06T10:11:53;19.30;99.90
18160;DHT22;9205;52.032;4.314;2022-07-06T10:14:22;19.50;99.90
18160;DHT22;9205;52.032;4.314;2022-07-06T10:16:51;19.60;99.90
18160;DHT22;9205;52.032;4.314;2022-07-06T10:19:20;19.70;99.90
18160;DHT22;9205;52.032;4.314;2022-07-06T10:21:48;20.00;99.90
18160;DHT22;9205;52.032;4.314;2022-07-06T10:24:18;20.20;99.90
18160;DHT22;9205;52.032;4.314;2022-07-06T10:26:48;20.50;99.90
18160;DHT22;9205;52.032;4.314;2022-07-06T10:29:15;20.90;99.90
18160;DHT22;9205;52.032;4.314;2022-07-06T10:31:45;21.50;99.90
18160;DHT22;9205;52.032;4.314;2022-07-06T10:34:19;22.00;99.90
18160;DHT22;9205;52.032;4.314;2022-07-06T10:36:50;22.40;99.90
18160;DHT22;9205;52.032;4.314;2022-07-06T10:39:32;22.50;99.90
18160;DHT22;9205;52.032;4.314;2022-07-06T10:42:44;23.00;99.90
18160;DHT22;9205;52.032;4.314;2022-07-06T10:45:20;23.10;99.90
18160;DHT22;9205;52.032;4.314;2022-07-06T10:48:17;23.10;99.90
18160;DHT22;9205;52.032;4.314;2022-07-06T10:50:47;23.10;99.90
18160;DHT22;9205;52.032;4.314;2022-07-06T10:53:17;22.90;99.90
18160;DHT22;9205;52.032;4.314;2022-07-06T10:55:49;22.80;99.90
18160;DHT22;9205;52.032;4.314;2022-07-06T10:58:37;22.70;99.90
18160;DHT22;9205;52.032;4.314;2022-07-06T11:01:24;22.70;99.90
18160;DHT22;9205;52.032;4.314;2022-07-06T11:04:18;22.90;99.90
18160;DHT22;9205;52.032;4.314;2022-07-06T11:06:52;22.70;99.90
18160;DHT22;9205;52.032;4.314;2022-07-06T11:10:52;22.50;99.90
18160;DHT22;9205;52.032;4.314;2022-07-06T11:19:06;22.60;99.90
18160;DHT22;9205;52.032;4.314;2022-07-06T11:23:11;22.80;99.90
18160;DHT22;9205;52.032;4.314;2022-07-06T11:26:09;22.70;99.90
18160;DHT22;9205;52.032;4.314;2022-07-06T11:28:54;22.80;99.90
18160;DHT22;9205;52.032;4.314;2022-07-06T11:31:25;23.00;99.90
18160;DHT22;9205;52.032;4.314;2022-07-06T11:34:17;22.90;99.90
18160;DHT22;9205;52.032;4.314;2022-07-06T11:40:27;22.70;99.80
18160;DHT22;9205;52.032;4.314;2022-07-06T11:43:05;22.50;99.90
18160;DHT22;9205;52.032;4.314;2022-07-06T11:46:19;22.30;99.60
18160;DHT22;9205;52.032;4.314;2022-07-06T11:49:06;22.20;97.60
18160;DHT22;9205;52.032;4.314;2022-07-06T11:51:58;21.90;96.70
18160;DHT22;9205;52.032;4.314;2022-07-06T11:54:26;21.80;95.90
18160;DHT22;9205;52.032;4.314;2022-07-06T11:56:56;21.70;96.70
18160;DHT22;9205;52.032;4.314;2022-07-06T11:59:42;21.80;97.40
18160;DHT22;9205;52.032;4.314;2022-07-06T12:02:14;21.80;97.70
18160;DHT22;9205;52.032;4.314;2022-07-06T12:04:45;21.90;99.90
18160;DHT22;9205;52.032;4.314;2022-07-06T12:07:16;21.80;99.20
18160;DHT22;9205;52.032;4.314;2022-07-06T12:09:45;21.60;98.90
18160;DHT22;9205;52.032;4.314;2022-07-06T12:12:13;21.30;98.30
18160;DHT22;9205;52.032;4.314;2022-07-06T12:14:42;21.50;99.90
18160;DHT22;9205;52.032;4.314;2022-07-06T12:17:10;21.40;99.90
18160;DHT22;9205;52.032;4.314;2022-07-06T12:19:41;21.30;99.90
18160;DHT22;9205;52.032;4.314;2022-07-06T12:22:11;21.20;99.90
18160;DHT22;9205;52.032;4.314;2022-07-06T12:24:52;21.20;99.90
18160;DHT22;9205;52.032;4.314;2022-07-06T12:27:20;21.20;99.90
18160;DHT22;9205;52.032;4.314;2022-07-06T12:29:48;21.40;99.90
18160;DHT22;9205;52.032;4.314;2022-07-06T12:32:16;21.40;99.90
18160;DHT22;9205;52.032;4.314;2022-07-06T12:34:46;21.50;99.90
18160;DHT22;9205;52.032;4.314;2022-07-06T12:37:22;21.50;99.90
18160;DHT22;9205;52.032;4.314;2022-07-06T12:39:49;21.60;99.90
18160;DHT22;9205;52.032;4.314;2022-07-06T12:42:17;21.60;99.90
18160;DHT22;9205;52.032;4.314;2022-07-06T12:44:47;21.80;99.90
18160;DHT22;9205;52.032;4.314;2022-07-06T12:47:17;21.90;99.90
18160;DHT22;9205;52.032;4.314;2022-07-06T12:49:47;22.00;99.90
18160;DHT22;9205;52.032;4.314;2022-07-06T12:52:17;22.20;99.90
18160;DHT22;9205;52.032;4.314;2022-07-06T12:54:45;22.50;99.90
18160;DHT22;9205;52.032;4.314;2022-07-06T12:57:15;22.30;99.90
18160;DHT22;9205;52.032;4.314;2022-07-06T12:59:45;22.30;99.90
18160;DHT22;9205;52.032;4.314;2022-07-06T13:02:20;21.90;99.90
18160;DHT22;9205;52.032;4.314;2022-07-06T13:04:56;21.80;99.90
18160;DHT22;9205;52.032;4.314;2022-07-06T13:07:26;21.80;99.90
18160;DHT22;9205;52.032;4.314;2022-07-06T13:09:55;21.90;99.90
18160;DHT22;9205;52.032;4.314;2022-07-06T13:12:22;21.80;99.90
18160;DHT22;9205;52.032;4.314;2022-07-06T13:14:51;21.70;99.90
18160;DHT22;9205;52.032;4.314;2022-07-06T13:17:19;21.50;99.90
18160;DHT22;9205;52.032;4.314;2022-07-06T13:19:47;21.20;99.90
18160;DHT22;9205;52.032;4.314;2022-07-06T13:22:15;21.20;99.90
18160;DHT22;9205;52.032;4.314;2022-07-06T13:24:44;21.20;99.90
18160;DHT22;9205;52.032;4.314;2022-07-06T13:27:12;21.30;99.90
18160;DHT22;9205;52.032;4.314;2022-07-06T13:29:39;21.30;99.90
18160;DHT22;9205;52.032;4.314;2022-07-06T13:32:07;21.20;99.90
18160;DHT22;9205;52.032;4.314;2022-07-06T13:34:35;21.30;99.90
18160;DHT22;9205;52.032;4.314;2022-07-06T13:37:05;21.40;99.90
18160;DHT22;9205;52.032;4.314;2022-07-06T13:39:32;21.40;99.90
18160;DHT22;9205;52.032;4.314;2022-07-06T13:42:01;21.10;99.90
18160;DHT22;9205;52.032;4.314;2022-07-06T13:44:30;21.10;99.90
18160;DHT22;9205;52.032;4.314;2022-07-06T13:46:57;20.90;99.90
18160;DHT22;9205;52.032;4.314;2022-07-06T13:49:24;20.80;99.90
18160;DHT22;9205;52.032;4.314;2022-07-06T13:51:52;20.60;99.90
18160;DHT22;9205;52.032;4.314;2022-07-06T13:54:20;20.50;99.90
18160;DHT22;9205;52.032;4.314;2022-07-06T13:56:49;20.60;99.90
18160;DHT22;9205;52.032;4.314;2022-07-06T13:59:18;20.60;99.90
18160;DHT22;9205;52.032;4.314;2022-07-06T14:01:45;20.60;99.90
18160;DHT22;9205;52.032;4.314;2022-07-06T14:04:12;20.40;99.90
18160;DHT22;9205;52.032;4.314;2022-07-06T14:06:40;20.60;99.90
18160;DHT22;9205;52.032;4.314;2022-07-06T14:09:07;20.70;99.90
18160;DHT22;9205;52.032;4.314;2022-07-06T14:11:34;20.90;99.90
18160;DHT22;9205;52.032;4.314;2022-07-06T14:14:02;20.90;99.90
18160;DHT22;9205;52.032;4.314;2022-07-06T14:16:35;21.10;99.90
18160;DHT22;9205;52.032;4.314;2022-07-06T14:19:02;21.30;99.90
18160;DHT22;9205;52.032;4.314;2022-07-06T14:21:30;21.30;99.90
18160;DHT22;9205;52.032;4.314;2022-07-06T14:23:57;21.40;99.90
18160;DHT22;9205;52.032;4.314;2022-07-06T14:26:25;21.50;99.90
18160;DHT22;9205;52.032;4.314;2022-07-06T14:28:53;21.50;99.90
18160;DHT22;9205;52.032;4.314;2022-07-06T14:31:20;21.30;99.90
18160;DHT22;9205;52.032;4.314;2022-07-06T14:33:49;21.40;99.90
18160;DHT22;9205;52.032;4.314;2022-07-06T14:36:17;21.40;99.90
18160;DHT22;9205;52.032;4.314;2022-07-06T14:38:44;21.30;99.90
18160;DHT22;9205;52.032;4.314;2022-07-06T14:41:11;21.30;99.90
18160;DHT22;9205;52.032;4.314;2022-07-06T14:43:39;21.40;99.90
18160;DHT22;9205;52.032;4.314;2022-07-06T14:46:06;21.40;99.90
18160;DHT22;9205;52.032;4.314;2022-07-06T14:48:34;21.20;99.90
18160;DHT22;9205;52.032;4.314;2022-07-06T14:51:03;21.10;99.90
18160;DHT22;9205;52.032;4.314;2022-07-06T14:53:30;20.90;99.90
18160;DHT22;9205;52.032;4.314;2022-07-06T14:55:57;20.80;99.90
18160;DHT22;9205;52.032;4.314;2022-07-06T14:58:25;20.70;99.90
18160;DHT22;9205;52.032;4.314;2022-07-06T15:00:52;20.70;99.90
18160;DHT22;9205;52.032;4.314;2022-07-06T15:03:20;20.60;99.90
18160;DHT22;9205;52.032;4.314;2022-07-06T15:05:47;20.80;99.90
18160;DHT22;9205;52.032;4.314;2022-07-06T15:08:19;20.90;99.90
18160;DHT22;9205;52.032;4.314;2022-07-06T15:10:46;20.80;99.90
18160;DHT22;9205;52.032;4.314;2022-07-06T15:13:14;20.70;99.90
18160;DHT22;9205;52.032;4.314;2022-07-06T15:15:42;20.70;99.90
18160;DHT22;9205;52.032;4.314;2022-07-06T15:18:11;20.70;99.90
18160;DHT22;9205;52.032;4.314;2022-07-06T15:20:38;20.90;99.90
18160;DHT22;9205;52.032;4.314;2022-07-06T15:23:06;21.00;99.90
18160;DHT22;9205;52.032;4.314;2022-07-06T15:25:37;21.00;99.90
18160;DHT22;9205;52.032;4.314;2022-07-06T15:28:04;21.00;99.90
18160;DHT22;9205;52.032;4.314;2022-07-06T15:30:32;21.10;99.90
18160;DHT22;9205;52.032;4.314;2022-07-06T15:32:59;21.10;99.90
18160;DHT22;9205;52.032;4.314;2022-07-06T15:35:27;20.90;99.90
18160;DHT22;9205;52.032;4.314;2022-07-06T15:37:54;21.00;99.90
18160;DHT22;9205;52.032;4.314;2022-07-06T15:40:28;20.90;99.90
18160;DHT22;9205;52.032;4.314;2022-07-06T15:43:09;20.90;99.90
18160;DHT22;9205;52.032;4.314;2022-07-06T15:45:37;20.70;99.90
18160;DHT22;9205;52.032;4.314;2022-07-06T15:48:06;20.60;99.90
18160;DHT22;9205;52.032;4.314;2022-07-06T15:50:34;20.60;99.90
18160;DHT22;9205;52.032;4.314;2022-07-06T15:53:02;20.30;99.90
18160;DHT22;9205;52.032;4.314;2022-07-06T15:55:33;20.30;99.90
18160;DHT22;9205;52.032;4.314;2022-07-06T15:58:01;20.10;99.90
18160;DHT22;9205;52.032;4.314;2022-07-06T16:00:31;20.10;99.90
18160;DHT22;9205;52.032;4.314;2022-07-06T16:03:08;20.00;99.90
18160;DHT22;9205;52.032;4.314;2022-07-06T16:05:39;20.10;99.90
18160;DHT22;9205;52.032;4.314;2022-07-06T16:08:21;20.00;99.90
18160;DHT22;9205;52.032;4.314;2022-07-06T16:11:05;20.00;99.90
18160;DHT22;9205;52.032;4.314;2022-07-06T16:13:33;20.10;99.90
18160;DHT22;9205;52.032;4.314;2022-07-06T16:16:06;20.00;99.90
18160;DHT22;9205;52.032;4.314;2022-07-06T16:18:34;20.00;99.90